createdAt,value
2022-08-28T00:01:58.139Z,9.43
2022-08-28T00:04:29.093Z,9.88
2022-08-28T00:06:59.807Z,9.73
2022-08-28T00:09:30.378Z,9.03
2022-08-28T00:12:00.853Z,9.28
2022-08-28T00:14:31.768Z,9.73
2022-08-28T00:17:02.976Z,8.70
2022-08-28T00:19:38.431Z,9.15
2022-08-28T00:22:08.146Z,8.18
2022-08-28T00:24:38.611Z,7.42
2022-08-28T00:27:26.808Z,7.10
2022-08-28T00:29:57.268Z,6.62
2022-08-28T00:32:28.424Z,7.05
2022-08-28T00:35:00.424Z,6.50
2022-08-28T00:37:30.969Z,6.78
2022-08-28T00:40:01.496Z,5.72
2022-08-28T00:42:38.622Z,6.30
2022-08-28T00:45:09.882Z,6.28
2022-08-28T00:47:40.989Z,5.87
2022-08-28T00:50:14.559Z,5.65
2022-08-28T00:52:48.275Z,6.05
2022-08-28T00:55:22.337Z,5.78
2022-08-28T00:57:56.487Z,5.15
2022-08-28T01:00:29.997Z,5.75
2022-08-28T01:03:01.234Z,5.97
2022-08-28T01:05:32.989Z,5.45
2022-08-28T01:08:04.633Z,5.53
2022-08-28T01:10:37.514Z,5.80
2022-08-28T01:13:08.304Z,5.97
2022-08-28T01:15:42.177Z,5.65
2022-08-28T01:18:16.256Z,5.72
2022-08-28T01:20:58.415Z,6.45
2022-08-28T01:23:53.297Z,5.85
2022-08-28T01:26:24.899Z,7.08
2022-08-28T01:28:58.265Z,7.03
2022-08-28T01:31:31.308Z,6.58
2022-08-28T01:34:01.793Z,7.53
2022-08-28T01:36:33.507Z,8.30
2022-08-28T01:39:07.008Z,7.97
2022-08-28T01:41:43.565Z,8.40
2022-08-28T01:44:17.875Z,8.40
2022-08-28T01:46:48.442Z,9.48
2022-08-28T01:49:19.118Z,9.28
2022-08-28T01:51:49.923Z,10.30
2022-08-28T01:54:21.982Z,9.33
2022-08-28T01:56:53.551Z,9.58
2022-08-28T01:59:24.582Z,10.50
2022-08-28T02:01:56.712Z,10.08
2022-08-28T02:04:31.705Z,10.70
2022-08-28T02:06:59.824Z,10.75
2022-08-28T02:09:30.373Z,10.38
2022-08-28T02:12:00.838Z,10.45
2022-08-28T02:14:31.571Z,11.45
2022-08-28T02:17:03.009Z,9.93
2022-08-28T02:19:34.041Z,10.48
2022-08-28T02:22:06.296Z,10.50
2022-08-28T02:24:37.203Z,10.72
2022-08-28T02:27:07.979Z,10.63
2022-08-28T02:29:39.297Z,11.33
2022-08-28T02:32:09.721Z,10.65
2022-08-28T02:34:41.457Z,10.23
2022-08-28T02:37:13.707Z,9.58
2022-08-28T02:39:44.788Z,9.60
2022-08-28T02:42:15.791Z,9.75
2022-08-28T02:44:47.317Z,10.58
2022-08-28T02:47:18.321Z,10.25
2022-08-28T02:49:48.987Z,9.13
2022-08-28T02:52:19.743Z,9.00
2022-08-28T02:54:50.124Z,8.73
2022-08-28T02:57:20.594Z,7.65
2022-08-28T02:59:51.024Z,7.97
2022-08-28T03:02:21.551Z,7.85
2022-08-28T03:04:53.975Z,8.00
2022-08-28T03:07:24.418Z,7.85
2022-08-28T03:09:54.918Z,7.28
2022-08-28T03:12:25.776Z,7.40
2022-08-28T03:14:56.885Z,6.95
2022-08-28T03:17:27.427Z,7.20
2022-08-28T03:19:57.905Z,7.10
2022-08-28T03:22:46.323Z,7.58
2022-08-28T03:25:17.430Z,7.08
2022-08-28T03:27:49.215Z,6.78
2022-08-28T03:30:20.710Z,6.33
2022-08-28T03:32:52.218Z,6.30
2022-08-28T03:35:22.592Z,6.33
2022-08-28T03:37:53.071Z,6.53
2022-08-28T03:40:23.612Z,5.65
2022-08-28T03:42:54.201Z,6.05
2022-08-28T03:45:25.147Z,5.67
2022-08-28T03:47:56.525Z,5.78
2022-08-28T03:50:28.472Z,5.58
2022-08-28T03:52:59.939Z,5.60
2022-08-28T03:55:30.401Z,5.70
2022-08-28T03:58:01.131Z,6.30
2022-08-28T04:00:31.573Z,5.67
2022-08-28T04:03:02.461Z,5.17
2022-08-28T04:05:34.613Z,5.92
2022-08-28T04:08:05.815Z,5.30
2022-08-28T04:10:36.778Z,5.40
2022-08-28T04:13:07.554Z,4.83
2022-08-28T04:15:37.982Z,4.67
2022-08-28T04:18:09.196Z,4.60
2022-08-28T04:20:40.064Z,5.00
2022-08-28T04:23:10.583Z,4.50
2022-08-28T04:25:42.021Z,4.90
2022-08-28T04:28:12.742Z,5.08
2022-08-28T04:30:43.317Z,4.78
2022-08-28T04:33:13.714Z,4.55
2022-08-28T04:35:44.168Z,4.83
2022-08-28T04:38:14.695Z,5.05
2022-08-28T04:40:45.344Z,5.17
2022-08-28T04:43:17.278Z,4.08
2022-08-28T04:45:48.318Z,4.10
2022-08-28T04:48:18.974Z,4.37
2022-08-28T04:50:51.144Z,4.55
2022-08-28T04:53:21.724Z,4.20
2022-08-28T04:55:55.208Z,4.90
2022-08-28T04:58:26.183Z,3.90
2022-08-28T05:00:57.119Z,4.45
2022-08-28T05:03:27.598Z,4.50
2022-08-28T05:05:58.058Z,4.37
2022-08-28T05:08:29.589Z,3.87
2022-08-28T05:11:01.649Z,4.42
2022-08-28T05:13:32.113Z,4.12
2022-08-28T05:16:04.595Z,3.90
2022-08-28T05:18:35.822Z,4.03
2022-08-28T05:21:10.610Z,3.83
2022-08-28T05:23:40.103Z,4.10
2022-08-28T05:26:19.863Z,3.90
2022-08-28T05:28:50.867Z,3.80
2022-08-28T05:31:23.863Z,4.08
2022-08-28T05:33:54.828Z,4.22
2022-08-28T05:36:32.656Z,3.90
2022-08-28T05:39:02.060Z,4.05
2022-08-28T05:41:32.997Z,3.75
2022-08-28T05:44:06.840Z,4.15
2022-08-28T05:46:42.368Z,3.80
2022-08-28T05:49:13.484Z,3.95
2022-08-28T05:51:44.175Z,4.10
2022-08-28T05:54:15.788Z,4.15
2022-08-28T05:56:48.063Z,3.95
2022-08-28T05:59:18.904Z,4.20
2022-08-28T06:01:50.842Z,4.25
2022-08-28T06:04:24.228Z,4.78
2022-08-28T06:06:54.993Z,4.00
2022-08-28T06:09:29.782Z,4.12
2022-08-28T06:12:02.702Z,4.47
2022-08-28T06:14:33.965Z,4.20
2022-08-28T06:17:06.165Z,4.30
2022-08-28T06:19:41.270Z,4.58
2022-08-28T06:22:10.904Z,4.60
2022-08-28T06:24:41.799Z,4.42
2022-08-28T06:27:12.259Z,5.40
2022-08-28T06:29:44.344Z,5.17
2022-08-28T06:32:14.961Z,5.22
2022-08-28T06:34:46.025Z,5.53
2022-08-28T06:37:16.550Z,5.12
2022-08-28T06:39:47.099Z,5.20
2022-08-28T06:42:17.560Z,5.37
2022-08-28T06:44:48.013Z,5.17
2022-08-28T06:47:18.373Z,5.33
2022-08-28T06:49:48.752Z,5.83
2022-08-28T06:52:20.524Z,5.03
2022-08-28T06:54:55.480Z,5.53
2022-08-28T06:57:23.691Z,5.47
2022-08-28T07:00:00.794Z,5.53
2022-08-28T07:02:31.523Z,5.15
2022-08-28T07:05:02.047Z,5.65
2022-08-28T07:07:32.845Z,5.40
2022-08-28T07:10:03.514Z,5.85
2022-08-28T07:12:34.140Z,4.75
2022-08-28T07:15:05.625Z,4.95
2022-08-28T07:17:36.066Z,5.42
2022-08-28T07:20:07.248Z,5.12
2022-08-28T07:22:40.165Z,5.08
2022-08-28T07:25:12.146Z,4.72
2022-08-28T07:27:42.519Z,4.33
2022-08-28T07:30:13.521Z,5.53
2022-08-28T07:32:43.947Z,5.28
2022-08-28T07:35:14.365Z,4.80
2022-08-28T07:37:45.047Z,4.95
2022-08-28T07:40:15.491Z,5.10
2022-08-28T07:43:04.226Z,4.67
2022-08-28T07:45:36.044Z,4.55
2022-08-28T07:48:11.530Z,4.75
2022-08-28T07:50:41.361Z,5.10
2022-08-28T07:53:12.139Z,4.92
2022-08-28T07:55:42.624Z,4.37
2022-08-28T07:58:14.678Z,4.95
2022-08-28T08:00:45.691Z,5.67
2022-08-28T08:03:16.326Z,5.22
2022-08-28T08:06:02.901Z,5.20
2022-08-28T08:08:34.951Z,5.08
2022-08-28T08:11:11.188Z,5.15
2022-08-28T08:13:41.726Z,4.97
2022-08-28T08:16:21.643Z,5.05
2022-08-28T08:18:53.249Z,4.83
2022-08-28T08:21:28.286Z,5.25
2022-08-28T08:23:56.395Z,5.40
2022-08-28T08:26:31.244Z,5.28
2022-08-28T08:29:02.430Z,5.22
2022-08-28T08:31:35.232Z,5.25
2022-08-28T08:34:06.954Z,6.42
2022-08-28T08:36:40.144Z,5.03
2022-08-28T08:39:10.611Z,5.45
2022-08-28T08:41:54.405Z,5.50
2022-08-28T08:44:36.643Z,5.90
2022-08-28T08:47:19.524Z,5.37
2022-08-28T08:50:04.732Z,6.10
2022-08-28T08:52:59.041Z,5.47
2022-08-28T08:55:33.794Z,5.80
2022-08-28T08:58:10.635Z,5.92
2022-08-28T09:00:59.557Z,5.90
2022-08-28T09:03:55.867Z,6.10
2022-08-28T09:06:29.482Z,6.67
2022-08-28T09:09:03.631Z,5.80
2022-08-28T09:11:52.265Z,6.08
2022-08-28T09:14:26.937Z,6.28
2022-08-28T09:16:58.961Z,6.35
2022-08-28T09:19:29.398Z,6.55
2022-08-28T09:21:59.855Z,5.78
2022-08-28T09:24:34.380Z,6.22
2022-08-28T09:27:14.305Z,5.83
2022-08-28T09:29:43.904Z,8.05
2022-08-28T09:32:26.619Z,6.55
2022-08-28T09:35:11.629Z,6.75
2022-08-28T09:37:45.502Z,6.70
2022-08-28T09:40:48.994Z,6.03
2022-08-28T09:43:28.827Z,7.28
2022-08-28T09:46:26.776Z,6.78
2022-08-28T09:49:15.536Z,7.15
2022-08-28T09:51:47.482Z,6.42
2022-08-28T09:54:22.296Z,6.50
2022-08-28T09:56:53.306Z,6.95
2022-08-28T09:59:26.961Z,6.35
2022-08-28T10:02:03.450Z,7.28
2022-08-28T10:04:54.134Z,6.90
2022-08-28T10:07:46.431Z,7.33
2022-08-28T10:10:35.271Z,6.67
2022-08-28T10:13:08.819Z,6.20
2022-08-28T10:16:04.986Z,7.30
2022-08-28T10:18:58.678Z,7.47
2022-08-28T10:21:32.335Z,6.85
2022-08-28T10:24:14.838Z,6.83
2022-08-28T10:27:06.907Z,6.95
2022-08-28T10:29:58.638Z,6.87
2022-08-28T10:32:37.768Z,7.95
2022-08-28T10:35:14.187Z,7.22
2022-08-28T10:38:06.893Z,7.47
2022-08-28T10:41:04.868Z,7.28
2022-08-28T10:43:47.953Z,7.65
2022-08-28T10:46:27.175Z,7.47
2022-08-28T10:49:05.853Z,7.22
2022-08-28T10:51:44.256Z,7.45
2022-08-28T10:54:19.939Z,7.60
2022-08-28T10:57:12.383Z,7.75
2022-08-28T10:59:46.557Z,6.42
2022-08-28T11:02:20.144Z,7.00
2022-08-28T11:04:56.465Z,7.70
2022-08-28T11:07:42.152Z,6.60
2022-08-28T11:10:38.554Z,6.58
2022-08-28T11:13:13.058Z,6.70
2022-08-28T11:15:49.724Z,6.20
2022-08-28T11:18:28.976Z,6.92
2022-08-28T11:21:26.920Z,6.78
2022-08-28T11:24:04.219Z,7.17
2022-08-28T11:27:03.365Z,7.42
2022-08-28T11:30:00.173Z,6.80
2022-08-28T11:32:36.666Z,6.40
2022-08-28T11:35:23.338Z,7.35
2022-08-28T11:37:56.490Z,6.92
2022-08-28T11:40:37.030Z,7.70
2022-08-28T11:43:18.832Z,7.83
2022-08-28T11:45:59.822Z,7.65
2022-08-28T11:48:43.198Z,7.35
2022-08-28T11:51:22.778Z,7.37
2022-08-28T11:54:02.071Z,7.20
2022-08-28T11:56:55.093Z,7.40
2022-08-28T11:59:39.214Z,7.85
2022-08-28T12:02:40.087Z,7.80
2022-08-28T12:05:20.192Z,7.65
2022-08-28T12:07:52.441Z,7.80
2022-08-28T12:10:30.675Z,7.85
2022-08-28T12:13:03.974Z,7.85
2022-08-28T12:15:37.533Z,8.28
2022-08-28T12:18:36.661Z,8.20
2022-08-28T12:21:10.347Z,8.25
2022-08-28T12:23:47.102Z,7.58
2022-08-28T12:26:20.724Z,7.95
2022-08-28T12:29:10.989Z,7.83
2022-08-28T12:32:05.953Z,8.03
2022-08-28T12:34:45.773Z,7.60
2022-08-28T12:37:50.853Z,7.40
2022-08-28T12:40:15.471Z,7.60
2022-08-28T12:42:59.627Z,7.50
2022-08-28T12:45:38.856Z,8.08
2022-08-28T12:48:35.530Z,6.47
2022-08-28T12:51:09.606Z,7.25
2022-08-28T12:53:46.674Z,7.03
2022-08-28T12:56:19.763Z,7.00
2022-08-28T12:58:51.289Z,7.53
2022-08-28T13:01:35.486Z,7.67
2022-08-28T13:04:09.184Z,7.15
2022-08-28T13:06:41.173Z,7.42
2022-08-28T13:09:24.631Z,7.12
2022-08-28T13:11:55.231Z,7.12
2022-08-28T13:14:46.680Z,7.45
2022-08-28T13:17:20.316Z,6.55
2022-08-28T13:19:53.852Z,6.62
2022-08-28T13:22:36.735Z,5.35
2022-08-28T13:25:08.127Z,6.25
2022-08-28T13:27:40.149Z,6.08
2022-08-28T13:30:22.825Z,5.47
2022-08-28T13:33:01.482Z,5.70
2022-08-28T13:35:41.460Z,5.75
2022-08-28T13:38:16.492Z,5.28
2022-08-28T13:41:04.804Z,5.87
2022-08-28T13:43:47.179Z,5.30
2022-08-28T13:46:19.967Z,5.17
2022-08-28T13:48:51.078Z,5.65
2022-08-28T13:51:24.105Z,4.90
2022-08-28T13:53:56.365Z,5.42
2022-08-28T13:56:28.873Z,5.12
2022-08-28T13:59:01.052Z,5.00
2022-08-28T14:01:49.905Z,5.08
2022-08-28T14:04:22.797Z,5.22
2022-08-28T14:06:53.538Z,4.97
2022-08-28T14:09:27.055Z,4.97
2022-08-28T14:11:58.041Z,5.20
2022-08-28T14:14:28.676Z,4.85
2022-08-28T14:17:01.322Z,4.87
2022-08-28T14:19:34.263Z,4.97
2022-08-28T14:22:06.223Z,5.15
2022-08-28T14:24:37.312Z,5.03
2022-08-28T14:27:07.923Z,5.08
2022-08-28T14:29:43.189Z,4.35
2022-08-28T14:32:15.969Z,4.85
2022-08-28T14:34:47.978Z,4.65
2022-08-28T14:37:19.450Z,4.53
2022-08-28T14:39:50.878Z,5.05
2022-08-28T14:42:21.368Z,4.35
2022-08-28T14:44:52.014Z,4.20
2022-08-28T14:47:24.134Z,4.40
2022-08-28T14:49:55.836Z,4.50
2022-08-28T14:52:32.549Z,4.75
2022-08-28T14:55:04.647Z,4.08
2022-08-28T14:57:37.746Z,4.28
2022-08-28T15:00:10.011Z,3.90
2022-08-28T15:02:43.462Z,4.05
2022-08-28T15:05:15.545Z,4.10
2022-08-28T15:07:45.991Z,4.15
2022-08-28T15:10:17.219Z,4.28
2022-08-28T15:12:48.346Z,4.45
2022-08-28T15:15:21.507Z,4.20
2022-08-28T15:17:52.446Z,4.22
2022-08-28T15:20:23.596Z,4.10
2022-08-28T15:22:55.171Z,3.85
2022-08-28T15:25:29.294Z,4.10
2022-08-28T15:28:01.480Z,4.42
2022-08-28T15:30:32.426Z,4.70
2022-08-28T15:33:03.227Z,4.35
2022-08-28T15:35:37.155Z,4.37
2022-08-28T15:38:09.391Z,4.28
2022-08-28T15:41:00.156Z,4.53
2022-08-28T15:43:30.793Z,3.67
2022-08-28T15:46:02.218Z,3.80
2022-08-28T15:48:36.900Z,4.00
2022-08-28T15:51:08.488Z,4.30
2022-08-28T15:53:41.529Z,4.00
2022-08-28T15:56:17.834Z,4.03
2022-08-28T15:58:48.485Z,4.22
2022-08-28T16:01:21.191Z,3.90
2022-08-28T16:03:53.267Z,3.83
2022-08-28T16:06:24.711Z,3.27
2022-08-28T16:08:57.178Z,3.70
2022-08-28T16:11:32.228Z,3.90
2022-08-28T16:14:04.725Z,3.22
2022-08-28T16:16:38.343Z,3.80
2022-08-28T16:19:11.461Z,3.70
2022-08-28T16:21:43.353Z,3.55
2022-08-28T16:24:13.942Z,4.55
2022-08-28T16:26:44.535Z,3.17
2022-08-28T16:29:18.277Z,3.60
2022-08-28T16:31:48.781Z,3.75
2022-08-28T16:34:20.355Z,3.67
2022-08-28T16:36:52.366Z,4.10
2022-08-28T16:39:22.937Z,3.75
2022-08-28T16:41:53.932Z,3.70
2022-08-28T16:44:27.679Z,3.58
2022-08-28T16:46:58.259Z,3.33
2022-08-28T16:49:29.199Z,3.42
2022-08-28T16:51:59.703Z,3.10
2022-08-28T16:54:31.698Z,3.55
2022-08-28T16:57:02.887Z,3.17
2022-08-28T16:59:33.629Z,3.25
2022-08-28T17:02:05.731Z,2.87
2022-08-28T17:04:36.342Z,2.83
2022-08-28T17:07:06.866Z,3.30
2022-08-28T17:09:37.452Z,3.22
2022-08-28T17:12:18.630Z,2.98
2022-08-28T17:14:49.827Z,5.87
2022-08-28T17:17:26.065Z,6.67
2022-08-28T17:20:03.591Z,2.85
2022-08-28T17:22:37.156Z,3.30
2022-08-28T17:25:32.261Z,3.12
2022-08-28T17:28:06.877Z,2.90
2022-08-28T17:30:37.353Z,3.60
2022-08-28T17:33:09.146Z,4.25
2022-08-28T17:35:41.808Z,3.20
2022-08-28T17:38:11.770Z,3.75
2022-08-28T17:40:42.440Z,4.00
2022-08-28T17:43:13.330Z,3.83
2022-08-28T17:45:45.599Z,3.98
2022-08-28T17:48:17.594Z,3.40
2022-08-28T17:50:48.186Z,7.65
2022-08-28T17:53:19.744Z,3.40
2022-08-28T17:55:52.075Z,3.40
2022-08-28T17:58:22.423Z,3.27
2022-08-28T18:00:54.609Z,4.67
2022-08-28T18:03:25.199Z,3.80
2022-08-28T18:05:56.697Z,3.92
2022-08-28T18:08:28.367Z,3.62
2022-08-28T18:11:00.809Z,3.70
2022-08-28T18:13:32.161Z,3.70
2022-08-28T18:16:02.989Z,3.98
2022-08-28T18:18:36.439Z,3.70
2022-08-28T18:21:07.638Z,4.22
2022-08-28T18:23:47.566Z,4.20
2022-08-28T18:26:17.651Z,3.92
2022-08-28T18:28:48.178Z,3.33
2022-08-28T18:31:19.584Z,4.40
2022-08-28T18:33:52.130Z,3.55
2022-08-28T18:36:23.299Z,3.10
2022-08-28T18:38:54.231Z,3.02
2022-08-28T18:41:34.579Z,3.15
2022-08-28T18:44:04.715Z,3.10
2022-08-28T18:46:32.751Z,3.20
2022-08-28T18:49:04.578Z,2.92
2022-08-28T18:51:35.104Z,3.00
2022-08-28T18:54:06.206Z,3.30
2022-08-28T18:56:38.229Z,2.62
2022-08-28T18:59:09.300Z,2.80
2022-08-28T19:01:39.957Z,3.00
2022-08-28T19:04:10.589Z,2.87
2022-08-28T19:06:41.957Z,3.20
2022-08-28T19:09:19.398Z,3.20
2022-08-28T19:11:44.797Z,4.58
2022-08-28T19:14:15.171Z,3.47
2022-08-28T19:16:46.755Z,3.12
2022-08-28T19:19:17.182Z,2.77
2022-08-28T19:21:48.755Z,3.67
2022-08-28T19:24:22.382Z,3.20
2022-08-28T19:26:54.971Z,3.00
2022-08-28T19:29:25.963Z,2.92
2022-08-28T19:31:56.857Z,3.12
2022-08-28T19:34:29.822Z,3.08
2022-08-28T19:37:01.368Z,3.65
2022-08-28T19:39:33.875Z,3.27
2022-08-28T19:42:06.684Z,3.30
2022-08-28T19:48:00.590Z,2.80
2022-08-28T19:50:30.954Z,5.05
2022-08-28T19:53:01.582Z,5.25
2022-08-28T19:55:35.708Z,3.87
2022-08-28T19:58:06.634Z,4.22
2022-08-28T20:00:37.196Z,3.45
2022-08-28T20:03:07.941Z,3.42
2022-08-28T20:05:38.551Z,4.08
2022-08-28T20:08:09.252Z,3.90
2022-08-28T20:10:40.566Z,4.12
2022-08-28T20:13:11.658Z,3.70
2022-08-28T20:15:45.602Z,3.10
2022-08-28T20:18:17.497Z,3.15
2022-08-28T20:20:49.566Z,3.27
2022-08-28T20:23:19.985Z,3.80
2022-08-28T20:25:52.263Z,3.67
2022-08-28T20:28:22.678Z,4.20
2022-08-28T20:30:53.176Z,3.20
2022-08-28T20:33:24.589Z,3.15
2022-08-28T20:36:03.390Z,3.15
2022-08-28T20:38:34.110Z,3.62
2022-08-28T20:41:09.103Z,4.17
2022-08-28T20:43:40.846Z,4.10
2022-08-28T20:46:13.135Z,3.92
2022-08-28T20:48:44.015Z,4.12
2022-08-28T20:51:14.450Z,3.98
2022-08-28T20:53:45.454Z,3.80
2022-08-28T20:56:16.396Z,4.17
2022-08-28T20:58:46.810Z,4.62
2022-08-28T21:01:17.372Z,4.03
2022-08-28T21:03:48.249Z,4.67
2022-08-28T21:06:18.693Z,4.45
2022-08-28T21:08:50.113Z,5.50
2022-08-28T21:11:20.540Z,5.75
2022-08-28T21:13:51.420Z,4.85
2022-08-28T21:16:21.791Z,6.05
2022-08-28T21:19:12.134Z,6.45
2022-08-28T21:21:24.759Z,3.67
2022-08-28T21:23:55.352Z,3.30
2022-08-28T21:26:25.746Z,3.80
2022-08-28T21:28:56.104Z,4.58
2022-08-28T21:31:26.783Z,3.90
2022-08-28T21:33:57.251Z,3.52
2022-08-28T21:36:27.938Z,4.00
2022-08-28T21:38:58.761Z,3.40
2022-08-28T21:41:29.413Z,3.60
2022-08-28T21:43:59.840Z,3.72
2022-08-28T21:46:30.647Z,3.80
2022-08-28T21:49:01.658Z,3.92
2022-08-28T21:51:32.170Z,4.08
2022-08-28T21:54:02.588Z,3.92
2022-08-28T21:56:33.006Z,4.30
2022-08-28T21:59:03.933Z,4.40
2022-08-28T22:01:35.366Z,6.87
2022-08-28T22:04:06.448Z,3.72
2022-08-28T22:06:37.303Z,3.55
2022-08-28T22:09:09.379Z,3.80
2022-08-28T22:11:39.810Z,4.00
2022-08-28T22:14:11.090Z,3.58
2022-08-28T22:16:41.964Z,3.72
2022-08-28T22:19:12.601Z,3.55
2022-08-28T22:22:00.859Z,3.60
2022-08-28T22:24:31.225Z,3.98
2022-08-28T22:27:03.385Z,4.42
2022-08-28T22:29:35.374Z,4.03
2022-08-28T22:32:06.896Z,3.67
2022-08-28T22:34:40.367Z,3.70
2022-08-28T22:37:14.393Z,3.65
2022-08-28T22:39:44.747Z,3.42
2022-08-28T22:42:15.207Z,3.90
2022-08-28T22:44:45.660Z,3.83
2022-08-28T22:47:16.078Z,3.70
2022-08-28T22:49:48.555Z,4.30
2022-08-28T22:52:19.508Z,3.92
2022-08-28T22:54:53.174Z,4.05
2022-08-28T22:57:22.184Z,3.47
2022-08-28T22:59:52.625Z,3.95
2022-08-28T23:02:27.306Z,4.42
2022-08-28T23:04:55.921Z,3.90
2022-08-28T23:07:26.437Z,3.83
2022-08-28T23:09:57.578Z,4.10
2022-08-28T23:12:28.830Z,3.70
2022-08-28T23:14:59.186Z,3.50
2022-08-28T23:17:29.993Z,4.00
2022-08-28T23:20:01.957Z,3.37
2022-08-28T23:22:32.313Z,3.42
2022-08-28T23:25:03.008Z,4.00
2022-08-28T23:27:36.161Z,3.55
2022-08-28T23:30:07.925Z,3.50
2022-08-28T23:32:38.381Z,3.80
2022-08-28T23:35:11.810Z,3.40
2022-08-28T23:37:46.667Z,3.87
2022-08-28T23:40:24.135Z,4.15
2022-08-28T23:42:55.529Z,3.77
2022-08-28T23:45:26.109Z,3.67
2022-08-28T23:47:58.250Z,4.12
2022-08-28T23:50:30.260Z,3.83
2022-08-28T23:53:01.139Z,3.70
2022-08-28T23:55:31.706Z,3.77
2022-08-28T23:58:04.673Z,3.50
